Terminal Aerodrome Forecast
Issued by NWS Austin/San Antonio, TX

Home | Current Version | Previous Version | Text Only | Print | Product List | Glossary On
Versions: 1 2 3 4 5 6 7 8 9 10 11 12 13 14 15 16
000
FTUS44 KEWX 241700
TAFSAT
TAF
KSAT 241726Z 2418/2524 07006KT P6SM FEW040 BKN100
     FM242000 11008KT P6SM SCT060 SCT120
     FM250800 20004KT P6SM FEW030 SCT250
     FM251800 15007KT P6SM SCT060=

USA.gov is the U.S. government's official web portal to all federal, state and local government web resources and services.